F/V Pasiphae 2 — FMFN — position and weather

sailwx.info

Track history (hours):
 
Tides and Currents Weather Stations Pressure Air Temp Water Temp Dewpoint Dewpoint Depression Visibility Wind Speed Wind Dir Waves Ship Positions

F/V Pasiphae 2

Last reported at 2015-Jul-03 05:33 UTC. Time now 2015-Jul-03 15:39 UTC.
Position N 47°06' W 003°23'.

Length 14 m.

Type: Fishing. MMSI: 228224800.

Date/timePositionNaut miles runAvg speedWind from/ knotsBaromVisibWave heightAir tempDewpointWater temp
2015-Jul-03 05:33N 47°06' W 003°23'9 9.1
2015-Jul-03 04:33N 47°15' W 003°22'9 9.1
2015-Jul-03 03:33N 47°24' W 003°22'9 9.0
2015-Jul-03 02:33N 47°33' W 003°22'9 8.8
2015-Jul-03 01:33N 47°42' W 003°22'2 1.8
2015-Jul-03 00:33N 47°44' W 003°22'9 9.3
2015-Jul-02 23:33N 47°34' W 003°23'9 9.2
2015-Jul-02 22:33N 47°25' W 003°24'9 8.9
2015-Jul-02 21:33N 47°16' W 003°24'5 0.3
2015-Jul-02 04:33N 47°11' W 003°24'9 9.2
2015-Jul-02 03:33N 47°20' W 003°23'9 9.0
2015-Jul-02 02:33N 47°29' W 003°23'9 8.9
2015-Jul-02 01:33N 47°38' W 003°22'6 5.6
2015-Jul-02 00:33N 47°44' W 003°22'7 6.6
2015-Jul-01 23:33N 47°37' W 003°22'9 9.2
2015-Jul-01 22:33N 47°28' W 003°23'9 8.9
2015-Jul-01 21:33N 47°19' W 003°23'9 0.5
2015-Jul-01 04:32N 47°10' W 003°23'9 9.4
2015-Jul-01 03:33N 47°19' W 003°23'9 9.0
2015-Jul-01 02:33N 47°28' W 003°23'9 9.1
2015-Jul-01 01:33N 47°37' W 003°22'7 0.7
2015-Jun-30 15:33N 47°44' W 003°22'0 0.3
2015-Jun-30 14:33N 47°44' W 003°22'1 0.0
2015-Jun-29 08:33N 47°42' W 003°22'2 1.8
2015-Jun-29 07:33N 47°44' W 003°22'  
2015-Jun-26 21:24N 47°44' W 003°22'8 9.0
2015-Jun-26 20:33N 47°36' W 003°22'9 9.0
2015-Jun-26 19:33N 47°27' W 003°23'9 8.6
2015-Jun-26 18:33N 47°18' W 003°24'8 7.9
2015-Jun-26 17:33N 47°11' W 003°24'3 3.4
2015-Jun-26 16:33N 47°07' W 003°26'4 3.8
2015-Jun-26 15:33N 47°04' W 003°27'4 3.8
2015-Jun-26 14:32N 46°60' W 003°26'3 3.1
2015-Jun-26 13:32N 47°00' W 003°30'1 0.4
2015-Jun-26 11:33N 47°01' W 003°31'13 1.7
2015-Jun-26 04:05N 47°14' W 003°28'5 9.4
2015-Jun-26 03:33N 47°19' W 003°26'9 9.4
2015-Jun-26 02:33N 47°28' W 003°24'9 9.4
2015-Jun-26 01:33N 47°37' W 003°22'7 6.6
2015-Jun-26 00:33N 47°44' W 003°22'5 5.5
2015-Jun-25 23:34N 47°38' W 003°23'9 9.1
2015-Jun-25 22:33N 47°29' W 003°24'24 1.5
2015-Jun-25 06:33N 47°06' W 003°27'3 3.1
2015-Jun-25 05:31N 47°09' W 003°27'5 5.6
2015-Jun-25 04:32N 47°14' W 003°25'9 9.1
2015-Jun-25 03:33N 47°23' W 003°24'9 9.2
2015-Jun-25 02:33N 47°32' W 003°23'9 9.3
2015-Jun-25 01:34N 47°42' W 003°22'2 2.2
2015-Jun-25 00:33N 47°44' W 003°22'9 8.6
2015-Jun-24 23:33N 47°35' W 003°23'9 9.0
2015-Jun-24 22:34N 47°26' W 003°24'9 8.9
2015-Jun-24 21:33N 47°17' W 003°25'3 0.2
2015-Jun-24 04:32N 47°14' W 003°25'9 9.2
2015-Jun-24 03:34N 47°23' W 003°24'9 9.2
2015-Jun-24 02:34N 47°32' W 003°23'9 9.4
2015-Jun-24 01:34N 47°42' W 003°22'1 0.6
2015-Jun-24 00:34N 47°42' W 003°22'9 8.8
2015-Jun-23 23:34N 47°34' W 003°23'9 8.7
2015-Jun-23 22:34N 47°25' W 003°24'9 8.6
2015-Jun-23 21:34N 47°17' W 003°25'  
Track history (hours):
 
Tides and Currents Weather Stations Pressure Air Temp Water Temp Dewpoint Dewpoint Depression Visibility Wind Speed Wind Dir Waves Ship Positions

F/V Pasiphae 2

Last reported at 2015-Jul-03 05:33 UTC. Time now 2015-Jul-03 15:39 UTC.
Position N 47°06' W 003°23'.

Length 14 m.

Type: Fishing. MMSI: 228224800.

Date/timePositionNaut miles runAvg speedWind from/ knotsBaromVisibWave heightAir tempDewpointWater temp
2015-Jul-03 05:33N 47°06' W 003°23'9 9.1
2015-Jul-03 04:33N 47°15' W 003°22'9 9.1
2015-Jul-03 03:33N 47°24' W 003°22'9 9.0
2015-Jul-03 02:33N 47°33' W 003°22'9 8.8
2015-Jul-03 01:33N 47°42' W 003°22'2 1.8
2015-Jul-03 00:33N 47°44' W 003°22'9 9.3
2015-Jul-02 23:33N 47°34' W 003°23'9 9.2
2015-Jul-02 22:33N 47°25' W 003°24'9 8.9
2015-Jul-02 21:33N 47°16' W 003°24'5 0.3
2015-Jul-02 04:33N 47°11' W 003°24'9 9.2
2015-Jul-02 03:33N 47°20' W 003°23'9 9.0
2015-Jul-02 02:33N 47°29' W 003°23'9 8.9
2015-Jul-02 01:33N 47°38' W 003°22'6 5.6
2015-Jul-02 00:33N 47°44' W 003°22'7 6.6
2015-Jul-01 23:33N 47°37' W 003°22'9 9.2
2015-Jul-01 22:33N 47°28' W 003°23'9 8.9
2015-Jul-01 21:33N 47°19' W 003°23'9 0.5
2015-Jul-01 04:32N 47°10' W 003°23'9 9.4
2015-Jul-01 03:33N 47°19' W 003°23'9 9.0
2015-Jul-01 02:33N 47°28' W 003°23'9 9.1
2015-Jul-01 01:33N 47°37' W 003°22'7 0.7
2015-Jun-30 15:33N 47°44' W 003°22'0 0.3
2015-Jun-30 14:33N 47°44' W 003°22'1 0.0
2015-Jun-29 08:33N 47°42' W 003°22'2 1.8
2015-Jun-29 07:33N 47°44' W 003°22'  
2015-Jun-26 21:24N 47°44' W 003°22'8 9.0
2015-Jun-26 20:33N 47°36' W 003°22'9 9.0
2015-Jun-26 19:33N 47°27' W 003°23'9 8.6
2015-Jun-26 18:33N 47°18' W 003°24'8 7.9
2015-Jun-26 17:33N 47°11' W 003°24'3 3.4
2015-Jun-26 16:33N 47°07' W 003°26'4 3.8
2015-Jun-26 15:33N 47°04' W 003°27'4 3.8
2015-Jun-26 14:32N 46°60' W 003°26'3 3.1
2015-Jun-26 13:32N 47°00' W 003°30'1 0.4
2015-Jun-26 11:33N 47°01' W 003°31'13 1.7
2015-Jun-26 04:05N 47°14' W 003°28'5 9.4
2015-Jun-26 03:33N 47°19' W 003°26'9 9.4
2015-Jun-26 02:33N 47°28' W 003°24'9 9.4
2015-Jun-26 01:33N 47°37' W 003°22'7 6.6
2015-Jun-26 00:33N 47°44' W 003°22'5 5.5
2015-Jun-25 23:34N 47°38' W 003°23'9 9.1
2015-Jun-25 22:33N 47°29' W 003°24'24 1.5
2015-Jun-25 06:33N 47°06' W 003°27'3 3.1
2015-Jun-25 05:31N 47°09' W 003°27'5 5.6
2015-Jun-25 04:32N 47°14' W 003°25'9 9.1
2015-Jun-25 03:33N 47°23' W 003°24'9 9.2
2015-Jun-25 02:33N 47°32' W 003°23'9 9.3
2015-Jun-25 01:34N 47°42' W 003°22'2 2.2
2015-Jun-25 00:33N 47°44' W 003°22'9 8.6
2015-Jun-24 23:33N 47°35' W 003°23'9 9.0
2015-Jun-24 22:34N 47°26' W 003°24'9 8.9
2015-Jun-24 21:33N 47°17' W 003°25'3 0.2
2015-Jun-24 04:32N 47°14' W 003°25'9 9.2
2015-Jun-24 03:34N 47°23' W 003°24'9 9.2
2015-Jun-24 02:34N 47°32' W 003°23'9 9.4
2015-Jun-24 01:34N 47°42' W 003°22'1 0.6
2015-Jun-24 00:34N 47°42' W 003°22'9 8.8
2015-Jun-23 23:34N 47°34' W 003°23'9 8.7
2015-Jun-23 22:34N 47°25' W 003°24'9 8.6
2015-Jun-23 21:34N 47°17' W 003°25'  

Dump ship's entire track history